DABC/CZL METAR and TAF weather

Enter ICAO airport designator
Station Type Date Time Source
DABC METAR 2018/12/13 16:00 UTC NOAA

DABC 131600Z 23016KT 9999 FEW033 SCT100 12/05 Q1010


Station Type Date Time Source
DABC Decoded METAR 2018/12/13 16:00 UTC NOAA

Constantine, Algeria (DABC) 36-17N 006-37E 694M
Dec 13, 2018 - 11:00 AM EST / 2018.12.13 1600 UTC
Wind: from the SW (230 degrees) at 18 MPH (16 KT):0
Visibility: greater than 7 mile(s):0
Sky conditions: partly cloudy
Temperature: 53 F (12 C)
Dew Point: 41 F (5 C)
Relative Humidity: 62%
Pressure (altimeter): 29.83 in. Hg (1010 hPa)
ob: DABC 131600Z 23016KT 9999 FEW033 SCT100 12/05 Q1010
cycle: 16

Station Type Date Time Source
DABC TAF 2018/12/13 12:33 UTC NOAA

TAF DABC 131100Z 1312/1412 27011KT 9999 FEW030 SCT100 PROB40
TEMPO 1312/1320 FEW026TCU
BECMG 1319/1321 21014KT FEW026TCU BKN030
TEMPO 1400/1412 24015G25KT 3000 TSRA SCT020CB


Example: see airport list